Share

Mount Erie, IL

6:16 PM CDT on April 23, 2014 (GMT -0500)
Bluford (KILBLUFO2) Elev 515 ft | 38.32 °N, 88.74 °W | Change Station

Current weather conditions updated 14 minutes ago

Clear
Clear
64.7 °F
Feels Like 64.7 °F
N
1.0
Wind Variable Wind from East
Gusts 7.0 mph
Sunrise 6:06 AM
Sunset 7:37 PM
Moon Waning Crescent

Tomorrow is forecast to be Much Warmer than today. Afternoon thunderstorms.

Pressure 30.04 in
Visibility 10.0 miles
Clouds Clear
Dew Point 36 °F
Humidity 34%
Rainfall 0.00 in
Snow Depth Not available.
UV 1 out of 16
Pollen 9.90 out of 12
Air Quality Not available.
Flu Activity Local Activity
METAR KMVN 232255Z AUTO 07007KT 10SM CLR 17/01 A3004 RMK AO1

More Conditions Fewer Conditions

Pressure 30.04 in
Visibility 10.0 miles
Clouds Clear
Dew Point 36 °F
Humidity 34%
Rainfall 0.00 in
Snow Depth Not available.
UV 1 out of 16
Pollen 9.90 out of 12
Air Quality Not available.
Flu Activity Local Activity
METAR KMVN 232255Z AUTO 07007KT 10SM CLR 17/01 A3004 RMK AO1

More Conditions Fewer Conditions

10-Day Weather Forecast

Almanac

Astronomy

Apr. 23, 2014 Rise Set
Actual Time 6:06 AM CDT 7:37 PM CDT
Civil Twilight 5:38 AM CDT 8:05 PM CDT
Nautical Twilight 5:05 AM CDT 8:39 PM CDT
Astronomical Twilight 4:30 AM CDT 9:14 PM CDT
Moon 2:33 AM CDT 1:50 PM CDT
Length of Visible Light 14h 26m
Length of Day
13h 30m
Tomorrow will be 2m 15s longer.
Waning Crescent, 32% of the Moon is Illuminated
Today
Waning Crescent
Apr 29
New
May 6
First Quarter
May 14
Full
May 21
Last Quarter

Today's Extremes

State Highs State Lows

Community

  • Nestled In
    Nestled In
  • Stunning Sunrise
    Stunning Sunrise
  • spring flowers
    spring flowers
  • Earth Day Spectrum Ove' Blue
    Earth Day Spectrum Ove' Blue
  • BARN B&W
    BARN B&W

WunderPhotos

Upload Photos

1,704,454 photos uploaded!

WunderBlogs® & News

Nearby

Snow Depth

Station Depth Elevation
No new snow has been reported.

Coastal Water Temperatures

Place Temperature
No Stations Reporting

Earthquake Activity

City Distance Mag. Time & Date
No recent earthquake activity has been reported nearby.
Minimum magnitude displayed is 2.5.

Nearby Weather Stations

Station Location Temp. Dew Point Humidity Wind Precip. Elev Updated Type
Bluford, Bluford, IL 64.7 °F 36 °F 34% East  at  1.0 mph 0.00 in / hr 515 ft 6:02 PM CDT Normal
North of Baker's Garage, Albion, IL 62.1 °F 33 °F 33% NE  at  1.0 mph 0.00 in / hr 490 ft 6:16 PM CDT Rapid Fire
Parkersburg/Wynoose, Olney, IL 62.8 °F 37 °F 38% ENE  at  4.0 mph 0.00 in / hr 418 ft 6:16 PM CDT Normal

Show More Stations Show Fewer Stations

What do you think?

We're not finished. Please let us know what you like, what you don't like, and what you are still missing.